Time;durP1;ratioP1;P1;durP2;ratioP2;P2;SDS_P1;SDS_P2;PMS_P1;PMS_P2;Temp;Humidity;BMP_temperature;BMP_pressure;BME280_temperature;BME280_humidity;BME280_pressure;Samples;Min_cycle;Max_cycle;Signal;HPM_P1;HPM_P2
2021/12/29 00:00:57;;;;;;;6.30;4.40;;;;;;;1.63;77.87;98671.30;25066;1334;3026668;-69
2021/12/29 00:03:26;;;;;;;5.80;3.50;;;;;;;1.32;79.21;98672.77;25063;1334;3026114;-70
2021/12/29 00:05:56;;;;;;;8.30;4.90;;;;;;;1.30;78.89;98672.31;25050;1335;3070672;-68
2021/12/29 00:08:25;;;;;;;10.60;4.40;;;;;;;1.23;79.07;98672.39;25051;1333;3026865;-67
2021/12/29 00:10:55;;;;;;;7.30;3.90;;;;;;;1.09;79.55;98673.55;25055;1333;3026474;-72
2021/12/29 00:13:26;;;;;;;8.20;4.40;;;;;;;1.33;79.47;98678.26;25063;1335;3068628;-72
2021/12/29 00:15:57;;;;;;;8.60;3.90;;;;;;;1.90;77.93;98681.01;25037;1335;3026310;-69
2021/12/29 00:18:27;;;;;;;8.10;3.80;;;;;;;1.86;77.14;98680.29;25041;1334;3027016;-69
2021/12/29 00:20:57;;;;;;;5.00;3.40;;;;;;;1.72;77.17;98684.78;25053;1335;3029206;-68
2021/12/29 00:23:26;;;;;;;6.80;4.70;;;;;;;1.42;77.98;98690.52;25034;1335;3027221;-70
2021/12/29 00:25:55;;;;;;;10.70;5.00;;;;;;;1.08;79.31;98695.16;25046;1325;3026773;-69
2021/12/29 00:28:24;;;;;;;8.00;4.90;;;;;;;0.64;81.24;98690.23;25046;1334;3051972;-70
2021/12/29 00:30:52;;;;;;;7.70;4.50;;;;;;;0.64;81.75;98685.07;25031;1334;3028673;-69
2021/12/29 00:33:40;;;;;;;9.60;5.50;;;;;;;1.40;80.07;98680.92;25041;1334;3052141;-71
2021/12/29 00:36:28;;;;;;;15.20;6.80;;;;;;;1.44;78.28;98682.02;25049;1330;3052970;-72
2021/12/29 00:39:16;;;;;;;10.40;6.20;;;;;;;1.47;77.96;98681.23;25041;1334;3059018;-71
2021/12/29 00:42:21;;;;;;;11.90;6.80;;;;;;;1.21;78.39;98677.98;25026;1334;3052276;-71
2021/12/29 00:45:09;;;;;;;14.20;7.50;;;;;;;0.85;79.53;98684.55;25055;1335;3055356;-66
2021/12/29 00:47:38;;;;;;;12.80;7.80;;;;;;;0.65;80.35;98687.30;25041;1333;3026379;-67
2021/12/29 00:50:10;;;;;;;11.30;6.90;;;;;;;0.49;81.48;98688.64;25013;1333;3026557;-70
2021/12/29 00:52:39;;;;;;;12.10;6.70;;;;;;;0.93;80.64;98681.69;25060;1335;3054081;-72
2021/12/29 00:55:09;;;;;;;13.20;6.70;;;;;;;0.98;79.88;98682.40;25051;1325;3026500;-68
2021/12/29 00:57:37;;;;;;;11.20;7.00;;;;;;;1.29;79.04;98674.76;25029;1334;3026536;-72
2021/12/29 01:00:11;;;;;;;12.10;7.70;;;;;;;1.09;78.96;98678.58;25029;1331;3026851;-67
2021/12/29 01:02:40;;;;;;;11.10;7.50;;;;;;;0.72;80.39;98681.56;25045;1334;3050946;-67
2021/12/29 01:05:11;;;;;;;16.30;8.90;;;;;;;0.64;80.54;98683.86;25053;1334;3026411;-70
2021/12/29 01:07:41;;;;;;;14.90;9.40;;;;;;;0.45;81.64;98686.53;25014;1332;3026999;-67
2021/12/29 01:10:12;;;;;;;14.00;7.80;;;;;;;0.37;82.01;98688.33;25038;1334;3054227;-69
2021/12/29 01:12:47;;;;;;;12.70;7.40;;;;;;;0.94;80.72;98689.42;25054;1334;3026404;-68
2021/12/29 01:15:24;;;;;;;16.60;7.80;;;;;;;0.89;78.66;98690.79;25047;1335;3056458;-68
2021/12/29 01:17:54;;;;;;;18.20;9.60;;;;;;;0.64;78.98;98690.92;25020;1333;3050819;-67
2021/12/29 01:20:23;;;;;;;21.50;11.40;;;;;;;0.70;78.70;98689.88;25057;1333;3026915;-70
2021/12/29 01:22:52;;;;;;;21.40;10.60;;;;;;;0.59;78.70;98690.20;25055;1333;3028872;-69
2021/12/29 01:25:21;;;;;;;26.10;12.10;;;;;;;0.38;79.30;98695.35;25007;1335;3048341;-68
2021/12/29 01:27:51;;;;;;;24.80;12.30;;;;;;;0.18;79.80;98696.69;25025;1333;3026755;-67
2021/12/29 01:30:20;;;;;;;29.90;14.20;;;;;;;0.08;80.36;98695.27;25032;1333;3026907;-67
2021/12/29 01:33:00;;;;;;;19.70;10.50;;;;;;;-0.17;81.02;98701.68;25033;1335;3071796;-67
2021/12/29 01:35:28;;;;;;;24.20;11.00;;;;;;;0.11;80.52;98707.56;25046;1334;3026324;-69
2021/12/29 01:37:57;;;;;;;27.80;13.10;;;;;;;0.51;78.83;98713.05;25049;1333;3026410;-68
2021/12/29 01:40:27;;;;;;;19.00;9.30;;;;;;;0.61;78.53;98711.03;25024;1334;3070707;-67
2021/12/29 01:42:56;;;;;;;18.60;10.00;;;;;;;0.50;78.14;98716.55;25044;1330;3027151;-69
2021/12/29 01:45:25;;;;;;;19.60;10.00;;;;;;;0.06;79.46;98719.44;25072;1332;3026481;-70
2021/12/29 01:48:05;;;;;;;16.90;7.90;;;;;;;0.07;79.56;98714.75;25016;1335;3071335;-71
2021/12/29 01:50:35;;;;;;;23.00;11.70;;;;;;;0.02;78.67;98714.72;25024;1334;3026369;-69
2021/12/29 01:53:09;;;;;;;23.60;13.50;;;;;;;-0.22;79.83;98717.81;25052;1335;3026829;-69
2021/12/29 01:55:40;;;;;;;22.40;11.00;;;;;;;-0.27;80.57;98713.15;25054;1335;3053338;-67
2021/12/29 01:58:10;;;;;;;18.80;9.90;;;;;;;0.12;79.46;98712.52;25039;1334;3026515;-69
2021/12/29 02:00:41;;;;;;;22.30;11.50;;;;;;;0.70;77.58;98714.69;25054;1334;3026665;-68
2021/12/29 02:03:10;;;;;;;25.00;13.40;;;;;;;0.43;77.02;98709.88;25034;1334;3051568;-69
2021/12/29 02:05:39;;;;;;;26.90;11.90;;;;;;;0.32;77.43;98716.56;25027;1333;3026839;-70
2021/12/29 02:08:10;;;;;;;24.20;13.10;;;;;;;0.07;78.05;98714.23;25028;1335;3055611;-70
2021/12/29 02:10:45;;;;;;;25.20;13.20;;;;;;;-0.13;78.86;98715.68;25048;1333;3026127;-69
2021/12/29 02:13:14;;;;;;;26.40;13.70;;;;;;;-0.23;78.53;98721.99;25057;1334;3058944;-67
2021/12/29 02:15:43;;;;;;;28.90;15.00;;;;;;;-0.43;79.76;98724.27;25025;1334;3026765;-67
2021/12/29 02:18:14;;;;;;;26.10;14.30;;;;;;;-0.72;81.14;98731.06;25020;1335;3055445;-66
2021/12/29 02:20:46;;;;;;;29.20;15.30;;;;;;;-0.35;80.71;98730.23;25022;1334;3026028;-68
2021/12/29 02:23:26;;;;;;;30.20;15.60;;;;;;;0.01;79.40;98728.17;25057;1334;3029254;-70
2021/12/29 02:25:56;;;;;;;31.80;16.60;;;;;;;-0.04;79.33;98728.48;25042;1333;3055696;-68
2021/12/29 02:28:30;;;;;;;37.40;18.30;;;;;;;-0.18;79.27;98730.62;25013;1335;3026977;-69
2021/12/29 02:30:59;;;;;;;28.30;15.10;;;;;;;-0.50;80.55;98734.45;25037;1335;3026272;-69
2021/12/29 02:33:30;;;;;;;25.80;13.70;;;;;;;-1.02;80.84;98741.14;25019;1331;3027402;-66
2021/12/29 02:35:59;;;;;;;32.30;16.20;;;;;;;-1.13;80.54;98731.26;25052;1332;3027930;-69
2021/12/29 02:38:31;;;;;;;29.00;13.30;;;;;;;-1.21;81.31;98726.98;25061;1333;3028449;-66
2021/12/29 02:41:07;;;;;;;25.60;13.60;;;;;;;-0.93;79.91;98724.89;25048;1335;3049612;-71
2021/12/29 02:43:38;;;;;;;28.90;14.10;;;;;;;-0.65;77.97;98722.63;25019;1335;3054159;-69
2021/12/29 02:46:11;;;;;;;32.90;16.20;;;;;;;-0.60;77.22;98722.49;25018;1335;3026461;-67
2021/12/29 02:48:53;;;;;;;30.40;15.40;;;;;;;-0.73;77.60;98728.52;25055;1334;3056815;-72
2021/12/29 02:51:22;;;;;;;28.70;15.20;;;;;;;-0.74;77.73;98730.09;25010;1330;3048892;-67
2021/12/29 02:53:51;;;;;;;33.80;15.90;;;;;;;-1.03;78.26;98744.41;25062;1333;3026720;-70
2021/12/29 02:56:20;;;;;;;36.20;17.50;;;;;;;-1.32;79.31;98750.61;25040;1335;3057736;-70
2021/12/29 02:58:49;;;;;;;28.00;14.20;;;;;;;-1.46;79.71;98751.61;25005;1335;3025735;-71
2021/12/29 03:01:18;;;;;;;26.90;12.30;;;;;;;-1.73;80.78;98748.95;25054;1333;3050693;-68
2021/12/29 03:03:46;;;;;;;27.20;13.80;;;;;;;-1.11;79.27;98746.48;25064;1334;3026461;-68
2021/12/29 03:06:15;;;;;;;31.00;15.10;;;;;;;-0.63;77.13;98745.27;25053;1335;3052809;-68
2021/12/29 03:08:45;;;;;;;28.60;14.20;;;;;;;-0.70;76.45;98756.99;25024;1333;3027231;-71
2021/12/29 03:11:15;;;;;;;31.30;14.90;;;;;;;-0.81;76.29;98753.49;25029;1335;3026732;-67
2021/12/29 03:13:44;;;;;;;19.10;8.40;;;;;;;-1.00;76.75;98767.02;25040;1330;3029600;-72
2021/12/29 03:16:13;;;;;;;28.60;12.90;;;;;;;-1.18;77.08;98765.74;25023;1333;3030508;-69
2021/12/29 03:18:42;;;;;;;31.40;14.40;;;;;;;-1.52;78.04;98773.23;25025;1334;3059476;-68
2021/12/29 03:21:11;;;;;;;29.40;14.20;;;;;;;-1.72;79.20;98768.70;25031;1334;3026458;-71
2021/12/29 03:23:48;;;;;;;30.80;15.90;;;;;;;-1.79;79.62;98760.94;25020;1335;3052623;-69
2021/12/29 03:26:17;;;;;;;25.70;11.80;;;;;;;-1.85;79.69;98761.95;25036;1335;3029765;-67
2021/12/29 03:28:46;;;;;;;32.60;16.30;;;;;;;-1.55;78.29;98761.10;25045;1335;3026821;-69
2021/12/29 03:31:17;;;;;;;40.30;19.10;;;;;;;-1.33;77.06;98765.77;25011;1335;3054283;-71
2021/12/29 03:33:47;;;;;;;43.80;20.10;;;;;;;-1.20;76.23;98762.38;25038;1333;3026675;-69
2021/12/29 03:36:17;;;;;;;40.30;19.20;;;;;;;-1.40;76.63;98766.44;25026;1333;3026681;-70
2021/12/29 03:38:46;;;;;;;37.50;18.70;;;;;;;-1.63;77.35;98770.58;25024;1334;3054713;-68
2021/12/29 03:41:17;;;;;;;44.60;21.50;;;;;;;-1.69;77.51;98770.86;25020;1329;3026443;-69
2021/12/29 03:43:46;;;;;;;37.20;19.10;;;;;;;-1.69;77.82;98768.97;25090;1335;3026530;-69
2021/12/29 03:46:15;;;;;;;37.50;18.80;;;;;;;-2.00;78.41;98782.33;25044;1333;3026460;-71
2021/12/29 03:48:45;;;;;;;42.20;20.20;;;;;;;-2.32;79.32;98799.09;25038;1335;3055796;-69
2021/12/29 03:51:14;;;;;;;49.30;20.90;;;;;;;-2.41;79.82;98786.58;25029;1333;3026403;-71
2021/12/29 03:53:43;;;;;;;45.00;19.50;;;;;;;-2.07;79.17;98790.21;25042;1334;3026765;-69
2021/12/29 03:56:13;;;;;;;52.10;22.90;;;;;;;-1.52;76.85;98782.86;25035;1333;3026364;-68
2021/12/29 03:58:44;;;;;;;51.10;22.50;;;;;;;-1.44;75.96;98784.90;25004;1332;3026537;-70
2021/12/29 04:01:15;;;;;;;56.70;24.40;;;;;;;-1.90;76.51;98788.64;25033;1334;3029327;-69
2021/12/29 04:03:52;;;;;;;54.00;21.40;;;;;;;-1.97;76.66;98794.11;25060;1335;3054717;-68
2021/12/29 04:06:22;;;;;;;36.30;17.60;;;;;;;-2.01;76.58;98792.66;25059;1334;3026470;-68
2021/12/29 04:08:51;;;;;;;44.10;19.90;;;;;;;-2.27;77.60;98795.05;25040;1334;3026683;-70
2021/12/29 04:11:21;;;;;;;47.40;19.50;;;;;;;-2.40;78.17;98794.09;25023;1334;3054272;-69
2021/12/29 04:13:50;;;;;;;41.60;18.00;;;;;;;-2.51;78.60;98798.77;25022;1332;3026519;-71
2021/12/29 04:16:19;;;;;;;42.50;20.50;;;;;;;-2.48;78.72;98795.63;25037;1330;3048596;-69
2021/12/29 04:21:37;;;;;;;29.40;14.40;;;;;;;-2.36;77.95;98798.48;24986;1334;3055623;-70
2021/12/29 04:24:18;;;;;;;25.10;12.90;;;;;;;-1.91;76.42;98794.50;25069;1334;3058584;-69
2021/12/29 04:26:47;;;;;;;29.40;14.50;;;;;;;-1.87;75.72;98794.24;25027;1333;3027106;-68
2021/12/29 04:29:16;;;;;;;31.60;15.40;;;;;;;-1.79;75.69;98798.23;25100;1333;3053823;-68
2021/12/29 04:31:46;;;;;;;30.70;15.90;;;;;;;-1.90;75.95;98803.23;25029;1333;3026155;-71
2021/12/29 04:34:15;;;;;;;39.70;18.00;;;;;;;-2.11;76.31;98806.23;25035;1331;3026862;-71
2021/12/29 04:36:44;;;;;;;40.40;19.90;;;;;;;-2.44;77.77;98816.14;25026;1332;3026606;-72
2021/12/29 04:39:13;;;;;;;55.60;22.70;;;;;;;-2.54;78.12;98818.36;25039;1333;3026349;-68
2021/12/29 04:41:42;;;;;;;72.90;26.50;;;;;;;-2.67;78.68;98818.23;25022;1333;3050658;-70
2021/12/29 04:44:12;;;;;;;63.80;24.40;;;;;;;-2.79;79.29;98819.14;25041;1333;3026690;-70
2021/12/29 04:46:45;;;;;;;63.20;21.80;;;;;;;-2.70;79.22;98822.40;25022;1333;3028226;-71
2021/12/29 04:49:14;;;;;;;39.90;16.40;;;;;;;-2.31;78.06;98822.90;25013;1333;3051082;-70
2021/12/29 04:51:48;;;;;;;51.50;19.70;;;;;;;-1.86;75.89;98823.95;25044;1330;3026473;-72
2021/12/29 04:54:17;;;;;;;50.60;19.40;;;;;;;-1.75;75.02;98819.58;25029;1333;3053667;-71
2021/12/29 04:56:48;;;;;;;23.10;11.60;;;;;;;-1.80;75.02;98829.80;25084;1333;3026834;-69
2021/12/29 04:59:17;;;;;;;41.80;17.50;;;;;;;-1.87;74.83;98828.08;25041;1326;3026742;-72
2021/12/29 05:01:46;;;;;;;30.40;15.40;;;;;;;-2.18;75.77;98838.62;25031;1333;3049521;-71
2021/12/29 05:04:21;;;;;;;35.40;16.80;;;;;;;-2.53;76.70;98840.98;25022;1333;3026577;-71
2021/12/29 05:09:38;;;;;;;42.40;19.60;;;;;;;-2.80;78.45;98833.02;25006;1334;3053888;-68
2021/12/29 05:12:08;;;;;;;38.00;18.30;;;;;;;-2.75;78.34;98831.91;25036;1333;3030694;-69
2021/12/29 05:14:37;;;;;;;43.70;19.80;;;;;;;-2.83;78.16;98840.63;25039;1333;3051507;-69
2021/12/29 05:17:06;;;;;;;38.40;17.00;;;;;;;-2.86;78.04;98841.52;25054;1333;3028386;-69
2021/12/29 05:19:35;;;;;;;29.50;14.50;;;;;;;-2.53;77.56;98832.73;25038;1333;3071127;-73
2021/12/29 05:22:05;;;;;;;27.30;14.30;;;;;;;-1.93;75.51;98835.59;25049;1332;3026825;-68
2021/12/29 05:24:34;;;;;;;35.80;16.70;;;;;;;-2.06;75.16;98838.23;25085;1333;3026699;-70
2021/12/29 05:27:03;;;;;;;27.20;15.00;;;;;;;-2.11;75.68;98840.39;25030;1333;3070852;-69
2021/12/29 05:29:32;;;;;;;30.30;15.30;;;;;;;-2.23;75.49;98841.30;25055;1333;3026083;-69
2021/12/29 05:32:01;;;;;;;33.20;15.50;;;;;;;-2.44;76.34;98843.73;25016;1333;3053084;-72
2021/12/29 05:34:30;;;;;;;29.00;15.30;;;;;;;-2.56;76.91;98851.50;25009;1333;3028226;-73
2021/12/29 05:36:59;;;;;;;28.00;14.00;;;;;;;-2.76;77.49;98853.88;25044;1333;3052278;-69
2021/12/29 05:39:28;;;;;;;32.00;15.00;;;;;;;-2.88;77.49;98854.41;25002;1332;3026130;-69
2021/12/29 05:41:56;;;;;;;27.50;13.50;;;;;;;-2.94;77.89;98858.27;24864;1333;3048643;-71
2021/12/29 05:44:25;;;;;;;32.40;16.60;;;;;;;-3.04;77.88;98862.54;25039;1333;3026926;-73
2021/12/29 05:46:54;;;;;;;36.00;15.00;;;;;;;-3.25;78.94;98865.77;25073;1333;3056167;-73
2021/12/29 05:49:23;;;;;;;31.10;14.40;;;;;;;-2.95;78.60;98857.42;25013;1333;3026782;-70
2021/12/29 05:51:51;;;;;;;30.40;15.10;;;;;;;-2.51;76.48;98853.12;25072;1333;3052013;-73
2021/12/29 05:54:20;;;;;;;30.20;15.80;;;;;;;-2.40;76.40;98855.67;25083;1329;3029565;-71
2021/12/29 05:56:49;;;;;;;29.90;14.80;;;;;;;-2.34;75.48;98860.03;25053;1333;3051326;-70
2021/12/29 05:59:18;;;;;;;30.40;13.70;;;;;;;-2.65;75.84;98863.98;25052;1330;3027692;-69
2021/12/29 06:01:47;;;;;;;32.90;15.20;;;;;;;-2.72;76.31;98863.60;25044;1333;3048673;-70
2021/12/29 06:04:16;;;;;;;30.50;15.10;;;;;;;-2.82;76.81;98863.94;25069;1333;3026632;-71
2021/12/29 06:06:45;;;;;;;36.70;17.80;;;;;;;-3.13;77.33;98874.15;25020;1333;3070930;-70
2021/12/29 06:09:14;;;;;;;37.80;16.60;;;;;;;-3.31;78.51;98878.34;25040;1333;3029941;-70
2021/12/29 06:11:43;;;;;;;30.90;14.60;;;;;;;-3.28;78.46;98876.27;25067;1333;3051205;-71
2021/12/29 06:14:12;;;;;;;31.30;16.20;;;;;;;-3.40;78.90;98879.16;25035;1333;3026873;-68
2021/12/29 06:16:40;;;;;;;28.10;13.80;;;;;;;-3.31;78.74;98880.40;25072;1333;3052007;-69
2021/12/29 06:19:10;;;;;;;32.60;15.00;;;;;;;-2.93;77.43;98876.94;25025;1325;3026812;-73
2021/12/29 06:21:39;;;;;;;33.20;16.20;;;;;;;-2.18;75.40;98873.30;25020;1333;3028826;-73
2021/12/29 06:24:10;;;;;;;23.70;10.60;;;;;;;-2.15;74.38;98873.25;25033;1333;3056522;-75
2021/12/29 06:26:39;;;;;;;34.20;16.60;;;;;;;-2.21;74.23;98878.14;25059;1333;3026488;-75
2021/12/29 06:29:08;;;;;;;29.40;14.40;;;;;;;-2.51;74.82;98883.13;25030;1333;3026271;-73
2021/12/29 06:31:48;;;;;;;32.70;14.80;;;;;;;-2.61;75.28;98890.68;25027;1333;3055503;-75
2021/12/29 06:34:17;;;;;;;30.10;13.80;;;;;;;-2.77;75.26;98886.99;25053;1333;3028344;-76
2021/12/29 06:36:47;;;;;;;36.10;17.10;;;;;;;-3.23;76.89;98889.55;25063;1333;3026437;-69
2021/12/29 06:39:16;;;;;;;34.30;15.70;;;;;;;-3.36;78.21;98892.45;25057;1328;3029307;-72
2021/12/29 06:41:45;;;;;;;36.40;18.20;;;;;;;-3.38;78.14;98893.00;25070;1333;3050247;-73
2021/12/29 06:44:14;;;;;;;26.40;13.30;;;;;;;-3.29;78.22;98896.66;25019;1332;3026038;-69
2021/12/29 06:46:43;;;;;;;31.40;15.40;;;;;;;-3.31;78.03;98898.05;25035;1333;3052726;-69
2021/12/29 06:49:13;;;;;;;31.00;14.70;;;;;;;-3.50;78.44;98907.02;25014;1333;3026326;-71
2021/12/29 06:51:42;;;;;;;25.70;12.40;;;;;;;-3.21;78.29;98913.31;25057;1333;3025971;-72
2021/12/29 06:54:10;;;;;;;29.80;13.30;;;;;;;-2.59;76.19;98910.36;25033;1333;3052497;-72
2021/12/29 06:56:39;;;;;;;33.30;16.50;;;;;;;-2.06;74.11;98911.52;25062;1332;3026475;-70
2021/12/29 06:59:08;;;;;;;32.60;14.70;;;;;;;-2.48;74.26;98912.73;25047;1333;3050156;-71
2021/12/29 07:01:37;;;;;;;30.50;15.70;;;;;;;-2.65;75.10;98913.55;25318;1333;3026324;-68
2021/12/29 07:04:06;;;;;;;33.70;17.20;;;;;;;-3.03;76.06;98919.59;25065;1333;3058761;-72
2021/12/29 07:06:35;;;;;;;31.30;14.70;;;;;;;-3.16;77.05;98916.35;25210;1333;3026773;-71
2021/12/29 07:09:05;;;;;;;35.70;15.80;;;;;;;-3.38;77.28;98931.86;25056;1329;3050563;-69
2021/12/29 07:11:36;;;;;;;32.20;15.30;;;;;;;-3.26;76.73;98928.46;25076;1329;3026732;-68
2021/12/29 07:14:07;;;;;;;30.70;14.60;;;;;;;-3.35;76.92;98925.50;25050;1333;3028945;-71
2021/12/29 07:16:37;;;;;;;35.90;18.10;;;;;;;-3.79;78.25;98935.77;25094;1333;3026756;-74
2021/12/29 07:19:06;;;;;;;39.30;15.80;;;;;;;-3.95;79.63;98934.58;22893;1333;3026758;-69
2021/12/29 07:21:35;;;;;;;26.40;13.40;;;;;;;-3.42;78.21;98926.44;25025;1333;3048841;-68
2021/12/29 07:24:05;;;;;;;26.00;12.90;;;;;;;-2.87;75.79;98929.13;25055;1333;3026266;-73
2021/12/29 07:26:35;;;;;;;25.70;13.30;;;;;;;-3.09;75.34;98930.48;25026;1333;3058783;-68
2021/12/29 07:29:04;;;;;;;27.70;13.00;;;;;;;-3.20;75.98;98935.58;25013;1332;3025885;-70
2021/12/29 07:31:34;;;;;;;28.90;14.50;;;;;;;-3.15;75.34;98934.84;25026;1333;3027092;-72
2021/12/29 07:34:03;;;;;;;33.90;16.50;;;;;;;-3.32;76.33;98937.98;25020;1329;3027019;-70
2021/12/29 07:36:34;;;;;;;36.20;17.80;;;;;;;-3.32;76.80;98935.57;25015;1332;3048040;-73
2021/12/29 07:39:03;;;;;;;40.70;17.30;;;;;;;-3.50;77.11;98944.52;25032;1334;3026435;-67
2021/12/29 07:41:32;;;;;;;37.40;17.10;;;;;;;-3.63;77.70;98956.84;25044;1335;3030576;-70
2021/12/29 07:44:03;;;;;;;32.60;15.10;;;;;;;-3.81;77.54;98958.73;25014;1334;3048525;-69
2021/12/29 07:46:34;;;;;;;37.00;16.00;;;;;;;-4.02;78.61;98953.30;25077;1330;3027572;-70
2021/12/29 07:49:03;;;;;;;33.80;15.20;;;;;;;-3.81;78.46;98958.22;25100;1332;3026419;-69
2021/12/29 07:51:32;;;;;;;41.40;17.90;;;;;;;-3.02;76.74;98957.61;25032;1329;3027240;-72
2021/12/29 07:54:00;;;;;;;35.10;15.00;;;;;;;-2.46;74.35;98948.90;25068;1332;3052210;-69
2021/12/29 07:56:29;;;;;;;28.60;14.90;;;;;;;-2.73;74.10;98948.13;25076;1333;3026979;-68
2021/12/29 07:58:59;;;;;;;35.10;13.50;;;;;;;-2.83;74.47;98953.77;25016;1333;3048957;-67
2021/12/29 08:01:28;;;;;;;22.70;11.70;;;;;;;-2.83;74.36;98961.64;25054;1333;3026004;-70
2021/12/29 08:03:56;;;;;;;38.80;16.70;;;;;;;-3.01;74.60;98965.48;25049;1333;3054291;-70
2021/12/29 08:06:26;;;;;;;32.50;16.00;;;;;;;-3.19;75.34;98961.61;25007;1333;3026817;-72
2021/12/29 08:08:55;;;;;;;35.90;16.90;;;;;;;-3.21;75.32;98955.65;25020;1328;3052571;-71
2021/12/29 08:11:24;;;;;;;30.00;15.20;;;;;;;-3.52;76.57;98958.93;25075;1329;3027023;-71
2021/12/29 08:13:54;;;;;;;30.10;15.80;;;;;;;-3.56;76.93;98958.98;25032;1325;3051129;-70
2021/12/29 08:16:23;;;;;;;41.20;17.40;;;;;;;-3.43;76.91;98953.35;25055;1330;3027763;-73
2021/12/29 08:18:51;;;;;;;37.40;17.80;;;;;;;-3.56;76.89;98951.27;25035;1333;3026820;-71
2021/12/29 08:21:20;;;;;;;37.00;16.70;;;;;;;-3.63;77.94;98958.38;25034;1333;3050133;-69
2021/12/29 08:23:49;;;;;;;24.60;13.10;;;;;;;-3.16;76.53;98954.36;25066;1333;3026678;-69
2021/12/29 08:26:20;;;;;;;32.30;15.80;;;;;;;-2.15;73.27;98947.89;25017;1333;3026496;-70
2021/12/29 08:28:50;;;;;;;29.40;14.30;;;;;;;-2.39;72.98;98948.46;25014;1333;3026284;-67
2021/12/29 08:31:20;;;;;;;38.90;17.00;;;;;;;-2.33;72.61;98948.35;25039;1333;3027360;-67
2021/12/29 08:33:48;;;;;;;28.60;15.40;;;;;;;-2.64;73.03;98947.64;25025;1333;3026134;-69
2021/12/29 08:36:17;;;;;;;34.90;16.40;;;;;;;-2.81;73.91;98949.77;25034;1333;3052959;-69
2021/12/29 08:38:46;;;;;;;32.50;16.40;;;;;;;-2.87;74.06;98946.79;25054;1333;3026424;-70
2021/12/29 08:41:15;;;;;;;31.70;14.10;;;;;;;-3.03;74.56;98945.14;25034;1333;3058425;-76
2021/12/29 08:43:46;;;;;;;30.40;16.30;;;;;;;-3.21;75.01;98949.14;25016;1333;3029011;-70
2021/12/29 08:46:31;;;;;;;39.10;17.20;;;;;;;-3.18;74.99;98944.63;25053;1333;3054387;-72
2021/12/29 08:49:00;;;;;;;32.80;14.50;;;;;;;-3.57;75.75;98951.45;25571;1333;3026568;-71
2021/12/29 08:51:29;;;;;;;26.20;12.00;;;;;;;-3.51;75.58;98948.31;25009;1333;3026669;-69
2021/12/29 08:53:59;;;;;;;29.90;14.20;;;;;;;-3.55;75.53;98949.55;25082;1332;3052088;-72
2021/12/29 08:56:28;;;;;;;27.00;13.80;;;;;;;-3.77;76.42;98947.73;25049;1333;3028066;-68
2021/12/29 08:58:57;;;;;;;27.10;13.40;;;;;;;-3.76;76.40;98950.81;25033;1333;3026545;-72
2021/12/29 09:01:26;;;;;;;27.40;11.80;;;;;;;-3.80;76.62;98947.26;25025;1332;3051213;-73
2021/12/29 09:03:55;;;;;;;21.80;10.20;;;;;;;-3.10;74.67;98937.16;25042;1333;3026109;-72
2021/12/29 09:06:35;;;;;;;24.80;12.40;;;;;;;-2.68;72.70;98937.77;25041;1333;3052710;-71
2021/12/29 09:09:04;;;;;;;24.10;13.10;;;;;;;-2.55;72.15;98934.31;25031;1333;3026981;-68
2021/12/29 09:11:41;;;;;;;30.10;12.40;;;;;;;-2.34;71.84;98938.42;25040;1333;3058855;-71
2021/12/29 09:14:11;;;;;;;36.30;16.30;;;;;;;-2.23;71.16;98939.79;25095;1333;3025955;-73
2021/12/29 09:16:43;;;;;;;31.10;16.40;;;;;;;-2.32;71.56;98946.11;25091;1333;3025960;-67
2021/12/29 09:19:13;;;;;;;28.70;15.20;;;;;;;-2.46;71.60;98948.22;25057;1326;3026365;-71
2021/12/29 09:21:47;;;;;;;25.80;13.10;;;;;;;-2.43;71.51;98944.41;25031;1333;3048653;-70
2021/12/29 09:24:17;;;;;;;27.40;13.10;;;;;;;-2.71;71.47;98945.70;25088;1333;3053447;-68
2021/12/29 09:26:46;;;;;;;26.50;13.70;;;;;;;-2.95;72.39;98947.42;25066;1332;3026201;-71
2021/12/29 09:29:15;;;;;;;30.10;13.20;;;;;;;-2.88;72.38;98948.33;25046;1333;3026174;-68
2021/12/29 09:31:44;;;;;;;20.70;9.10;;;;;;;-2.83;72.22;98952.21;25017;1333;3055045;-70
2021/12/29 09:34:13;;;;;;;29.00;14.60;;;;;;;-3.01;71.98;98948.17;25072;1333;3026306;-72
2021/12/29 09:36:43;;;;;;;27.40;13.80;;;;;;;-2.90;72.46;98948.38;25041;1333;3052269;-72
2021/12/29 09:39:12;;;;;;;23.80;13.20;;;;;;;-3.14;72.71;98948.17;25049;1333;3030102;-71
2021/12/29 09:41:41;;;;;;;32.60;13.20;;;;;;;-3.22;72.75;98949.30;25062;1333;3056102;-72
2021/12/29 09:44:10;;;;;;;25.30;12.30;;;;;;;-3.13;73.15;98949.02;25017;1333;3026602;-69
2021/12/29 09:46:40;;;;;;;19.90;10.30;;;;;;;-3.16;72.26;98948.20;25054;1333;3052939;-71
2021/12/29 09:49:11;;;;;;;23.00;11.50;;;;;;;-3.20;72.37;98944.15;25056;1333;3026681;-68
2021/12/29 09:51:39;;;;;;;16.10;9.20;;;;;;;-3.46;73.23;98937.63;25037;1332;3030012;-69
2021/12/29 09:54:08;;;;;;;23.00;12.20;;;;;;;-3.45;72.67;98929.39;25031;1333;3050897;-71
2021/12/29 09:56:37;;;;;;;19.60;10.60;;;;;;;-3.42;73.39;98929.02;25015;1333;3026675;-70
2021/12/29 09:59:07;;;;;;;16.40;9.80;;;;;;;-3.33;72.05;98924.81;25043;1330;3026404;-69
2021/12/29 10:01:37;;;;;;;18.50;10.10;;;;;;;-3.15;71.79;98917.53;25061;1332;3051415;-68
2021/12/29 10:04:07;;;;;;;19.60;9.80;;;;;;;-3.09;71.29;98921.39;25031;1333;3026155;-70
2021/12/29 10:06:37;;;;;;;16.50;9.00;;;;;;;-3.04;70.20;98918.73;25037;1333;3054497;-68
2021/12/29 10:09:15;;;;;;;17.50;9.20;;;;;;;-3.02;70.57;98921.46;25045;1333;3027104;-70
2021/12/29 10:11:45;;;;;;;15.40;9.70;;;;;;;-3.03;70.33;98926.95;25037;1332;3060920;-71
2021/12/29 10:14:16;;;;;;;14.00;8.60;;;;;;;-3.32;70.97;98926.32;25046;1333;3026595;-72
2021/12/29 10:16:46;;;;;;;17.10;8.30;;;;;;;-3.25;70.29;98930.17;25047;1333;3026637;-68
2021/12/29 10:19:17;;;;;;;20.00;10.60;;;;;;;-3.46;70.81;98931.30;25023;1333;3026195;-72
2021/12/29 10:21:47;;;;;;;17.70;9.30;;;;;;;-3.41;71.23;98930.71;24994;1333;3026826;-68
2021/12/29 10:24:20;;;;;;;17.20;8.80;;;;;;;-3.25;70.93;98927.59;25039;1329;3053536;-68
2021/12/29 10:26:49;;;;;;;18.20;9.30;;;;;;;-3.17;69.83;98929.38;25018;1333;3030856;-73
2021/12/29 10:29:19;;;;;;;13.30;8.30;;;;;;;-3.33;69.67;98927.37;24993;1333;3027508;-71
2021/12/29 10:32:02;;;;;;;15.30;8.60;;;;;;;-3.39;71.05;98926.23;25048;1333;3027079;-69
2021/12/29 10:34:32;;;;;;;17.60;9.70;;;;;;;-3.29;70.55;98928.67;24995;1329;3052717;-67
2021/12/29 10:37:08;;;;;;;20.50;11.20;;;;;;;-3.23;70.18;98930.49;25010;1333;3027049;-72
2021/12/29 10:39:39;;;;;;;21.40;10.90;;;;;;;-3.31;70.31;98932.65;25010;1333;3055554;-70
2021/12/29 10:42:19;;;;;;;18.50;10.00;;;;;;;-3.52;70.47;98937.35;24999;1334;3026926;-70
2021/12/29 10:44:59;;;;;;;15.80;9.00;;;;;;;-3.73;70.75;98938.11;24987;1334;3055444;-69
2021/12/29 10:47:31;;;;;;;22.40;11.70;;;;;;;-3.79;70.90;98939.05;24995;1333;3055430;-67
2021/12/29 10:50:13;;;;;;;17.00;9.30;;;;;;;-3.86;71.65;98939.80;24985;1333;3029437;-71
2021/12/29 10:52:45;;;;;;;17.10;9.30;;;;;;;-3.66;71.20;98941.45;25030;1332;3048544;-69
2021/12/29 10:55:18;;;;;;;13.60;7.10;;;;;;;-3.60;71.21;98944.13;25076;1332;3028814;-71
2021/12/29 10:58:01;;;;;;;19.40;10.30;;;;;;;-3.35;70.12;98940.73;25068;1333;3054333;-72
2021/12/29 11:00:30;;;;;;;21.50;12.20;;;;;;;-3.45;70.78;98943.60;25064;1333;3059353;-69
2021/12/29 11:03:19;;;;;;;15.20;8.80;;;;;;;-3.35;70.52;98934.40;25004;1333;3027690;-70
2021/12/29 11:05:58;;;;;;;12.40;7.30;;;;;;;-3.34;69.63;98936.10;25043;1333;3052125;-71
2021/12/29 11:09:03;;;;;;;16.30;9.70;;;;;;;-3.29;69.86;98940.50;25018;1333;3059208;-69
2021/12/29 11:11:36;;;;;;;28.60;13.40;;;;;;;-3.57;70.51;98948.21;24998;1332;3052582;-68
2021/12/29 11:14:13;;;;;;;19.40;8.90;;;;;;;-3.56;70.65;98948.02;25013;1333;3055360;-68
2021/12/29 11:16:44;;;;;;;18.70;8.60;;;;;;;-3.56;70.72;98952.14;25020;1331;3051715;-71
2021/12/29 11:19:13;;;;;;;23.30;11.70;;;;;;;-3.69;71.45;98948.17;25049;1333;3026176;-72
2021/12/29 11:21:42;;;;;;;19.40;10.50;;;;;;;-3.46;71.51;98947.56;25062;1333;3026582;-71
2021/12/29 11:24:17;;;;;;;20.10;10.70;;;;;;;-3.46;71.10;98951.16;25092;1332;3050250;-70
2021/12/29 11:26:46;;;;;;;;;;;;;;;-3.50;71.52;98959.60;25015;1332;3068404;-71